sensor_id;sensor_type;location;lat;lon;timestamp;P1;durP1;ratioP1;P2;durP2;ratioP2
2111;SDS011;1062;52.538;13.400;2023-06-22T00:00:42;13.23;;;10.83;;
2111;SDS011;1062;52.538;13.400;2023-06-22T00:03:08;11.93;;;10.93;;
2111;SDS011;1062;52.538;13.400;2023-06-22T00:05:34;13.27;;;11.87;;
2111;SDS011;1062;52.538;13.400;2023-06-22T00:08:02;12.70;;;11.50;;
2111;SDS011;1062;52.538;13.400;2023-06-22T00:10:29;10.80;;;9.80;;
2111;SDS011;1062;52.538;13.400;2023-06-22T00:12:54;11.77;;;10.73;;
2111;SDS011;1062;52.538;13.400;2023-06-22T00:15:20;12.00;;;10.80;;
2111;SDS011;1062;52.538;13.400;2023-06-22T00:17:46;12.53;;;11.33;;
2111;SDS011;1062;52.538;13.400;2023-06-22T00:20:11;11.90;;;10.70;;
2111;SDS011;1062;52.538;13.400;2023-06-22T00:22:38;12.83;;;11.50;;
2111;SDS011;1062;52.538;13.400;2023-06-22T00:25:05;12.10;;;11.00;;
2111;SDS011;1062;52.538;13.400;2023-06-22T00:27:31;11.57;;;10.57;;
2111;SDS011;1062;52.538;13.400;2023-06-22T00:29:57;11.17;;;10.17;;
2111;SDS011;1062;52.538;13.400;2023-06-22T00:32:23;12.10;;;10.30;;
2111;SDS011;1062;52.538;13.400;2023-06-22T00:34:48;12.20;;;11.00;;
2111;SDS011;1062;52.538;13.400;2023-06-22T00:37:15;12.70;;;11.03;;
2111;SDS011;1062;52.538;13.400;2023-06-22T00:39:41;12.67;;;11.50;;
2111;SDS011;1062;52.538;13.400;2023-06-22T00:42:08;11.17;;;10.03;;
2111;SDS011;1062;52.538;13.400;2023-06-22T00:44:34;12.50;;;11.30;;
2111;SDS011;1062;52.538;13.400;2023-06-22T00:47:00;12.50;;;11.30;;
2111;SDS011;1062;52.538;13.400;2023-06-22T00:49:27;11.97;;;10.87;;
2111;SDS011;1062;52.538;13.400;2023-06-22T00:51:52;13.50;;;12.13;;
2111;SDS011;1062;52.538;13.400;2023-06-22T00:54:19;11.40;;;10.30;;
2111;SDS011;1062;52.538;13.400;2023-06-22T00:56:49;11.63;;;10.53;;
2111;SDS011;1062;52.538;13.400;2023-06-22T00:59:17;12.93;;;11.57;;
2111;SDS011;1062;52.538;13.400;2023-06-22T01:01:43;12.87;;;11.67;;
2111;SDS011;1062;52.538;13.400;2023-06-22T01:04:10;11.57;;;10.40;;
2111;SDS011;1062;52.538;13.400;2023-06-22T01:06:38;12.27;;;11.13;;
2111;SDS011;1062;52.538;13.400;2023-06-22T01:09:18;13.20;;;11.90;;
2111;SDS011;1062;52.538;13.400;2023-06-22T01:11:50;11.70;;;10.50;;
2111;SDS011;1062;52.538;13.400;2023-06-22T01:14:42;14.70;;;11.83;;
2111;SDS011;1062;52.538;13.400;2023-06-22T01:17:14;12.43;;;11.20;;
2111;SDS011;1062;52.538;13.400;2023-06-22T01:19:45;11.93;;;10.83;;
2111;SDS011;1062;52.538;13.400;2023-06-22T01:22:19;13.17;;;11.97;;
2111;SDS011;1062;52.538;13.400;2023-06-22T01:25:00;11.37;;;10.27;;
2111;SDS011;1062;52.538;13.400;2023-06-22T01:28:12;12.03;;;10.93;;
2111;SDS011;1062;52.538;13.400;2023-06-22T01:30:41;12.23;;;11.07;;
2111;SDS011;1062;52.538;13.400;2023-06-22T01:33:10;14.90;;;13.30;;
2111;SDS011;1062;52.538;13.400;2023-06-22T01:35:38;12.27;;;11.07;;
2111;SDS011;1062;52.538;13.400;2023-06-22T01:38:05;11.73;;;10.53;;
2111;SDS011;1062;52.538;13.400;2023-06-22T01:40:31;13.83;;;12.50;;
2111;SDS011;1062;52.538;13.400;2023-06-22T01:43:00;14.23;;;12.83;;
2111;SDS011;1062;52.538;13.400;2023-06-22T01:45:27;12.20;;;10.87;;
2111;SDS011;1062;52.538;13.400;2023-06-22T01:47:53;15.00;;;11.90;;
2111;SDS011;1062;52.538;13.400;2023-06-22T01:50:20;11.87;;;10.73;;
2111;SDS011;1062;52.538;13.400;2023-06-22T01:52:46;12.67;;;11.47;;
2111;SDS011;1062;52.538;13.400;2023-06-22T01:55:12;13.90;;;12.60;;
2111;SDS011;1062;52.538;13.400;2023-06-22T01:57:37;13.57;;;12.27;;
2111;SDS011;1062;52.538;13.400;2023-06-22T02:00:04;14.10;;;12.70;;
2111;SDS011;1062;52.538;13.400;2023-06-22T02:05:31;15.73;;;14.23;;
2111;SDS011;1062;52.538;13.400;2023-06-22T02:08:17;17.83;;;14.40;;
2111;SDS011;1062;52.538;13.400;2023-06-22T02:10:46;15.97;;;14.27;;
2111;SDS011;1062;52.538;13.400;2023-06-22T02:13:13;16.83;;;15.27;;
2111;SDS011;1062;52.538;13.400;2023-06-22T02:15:39;16.97;;;15.23;;
2111;SDS011;1062;52.538;13.400;2023-06-22T02:18:05;16.27;;;14.57;;
2111;SDS011;1062;52.538;13.400;2023-06-22T02:20:31;18.13;;;16.20;;
2111;SDS011;1062;52.538;13.400;2023-06-22T02:22:57;19.17;;;16.67;;
2111;SDS011;1062;52.538;13.400;2023-06-22T02:25:22;18.50;;;16.53;;
2111;SDS011;1062;52.538;13.400;2023-06-22T02:27:48;18.70;;;16.80;;
2111;SDS011;1062;52.538;13.400;2023-06-22T02:30:14;18.03;;;16.27;;
2111;SDS011;1062;52.538;13.400;2023-06-22T02:32:41;19.00;;;16.87;;
2111;SDS011;1062;52.538;13.400;2023-06-22T02:35:08;18.37;;;16.57;;
2111;SDS011;1062;52.538;13.400;2023-06-22T02:37:35;17.13;;;15.43;;
2111;SDS011;1062;52.538;13.400;2023-06-22T02:40:06;18.37;;;16.47;;
2111;SDS011;1062;52.538;13.400;2023-06-22T02:42:33;18.30;;;15.60;;
2111;SDS011;1062;52.538;13.400;2023-06-22T02:44:59;17.67;;;15.87;;
2111;SDS011;1062;52.538;13.400;2023-06-22T02:47:25;15.90;;;14.30;;
2111;SDS011;1062;52.538;13.400;2023-06-22T02:49:51;16.87;;;14.40;;
2111;SDS011;1062;52.538;13.400;2023-06-22T02:52:17;17.20;;;15.33;;
2111;SDS011;1062;52.538;13.400;2023-06-22T02:54:42;18.63;;;16.73;;
2111;SDS011;1062;52.538;13.400;2023-06-22T02:57:10;16.90;;;15.20;;
2111;SDS011;1062;52.538;13.400;2023-06-22T02:59:38;15.60;;;14.00;;
2111;SDS011;1062;52.538;13.400;2023-06-22T03:02:07;18.40;;;14.57;;
2111;SDS011;1062;52.538;13.400;2023-06-22T03:04:34;15.10;;;13.70;;
2111;SDS011;1062;52.538;13.400;2023-06-22T03:07:00;18.00;;;16.37;;
2111;SDS011;1062;52.538;13.400;2023-06-22T03:09:26;16.00;;;14.60;;
2111;SDS011;1062;52.538;13.400;2023-06-22T03:11:53;15.80;;;14.30;;
2111;SDS011;1062;52.538;13.400;2023-06-22T03:14:19;18.27;;;16.47;;
2111;SDS011;1062;52.538;13.400;2023-06-22T03:16:44;16.47;;;14.77;;
2111;SDS011;1062;52.538;13.400;2023-06-22T03:19:10;17.13;;;15.40;;
2111;SDS011;1062;52.538;13.400;2023-06-22T03:21:36;20.27;;;15.13;;
2111;SDS011;1062;52.538;13.400;2023-06-22T03:24:06;17.80;;;15.93;;
2111;SDS011;1062;52.538;13.400;2023-06-22T03:26:32;14.83;;;13.27;;
2111;SDS011;1062;52.538;13.400;2023-06-22T03:28:59;15.50;;;13.90;;
2111;SDS011;1062;52.538;13.400;2023-06-22T03:31:25;15.33;;;13.97;;
2111;SDS011;1062;52.538;13.400;2023-06-22T03:33:50;13.53;;;12.17;;
2111;SDS011;1062;52.538;13.400;2023-06-22T03:36:16;15.20;;;13.73;;
2111;SDS011;1062;52.538;13.400;2023-06-22T03:38:45;15.67;;;14.07;;
2111;SDS011;1062;52.538;13.400;2023-06-22T03:41:12;14.17;;;12.77;;
2111;SDS011;1062;52.538;13.400;2023-06-22T03:43:37;13.13;;;11.77;;
2111;SDS011;1062;52.538;13.400;2023-06-22T03:46:03;13.87;;;12.47;;
2111;SDS011;1062;52.538;13.400;2023-06-22T03:48:29;13.37;;;11.87;;
2111;SDS011;1062;52.538;13.400;2023-06-22T03:50:54;13.87;;;12.50;;
2111;SDS011;1062;52.538;13.400;2023-06-22T03:53:20;14.43;;;12.90;;
2111;SDS011;1062;52.538;13.400;2023-06-22T03:55:52;18.20;;;13.50;;
2111;SDS011;1062;52.538;13.400;2023-06-22T03:58:18;17.80;;;14.47;;
2111;SDS011;1062;52.538;13.400;2023-06-22T04:00:48;17.30;;;12.93;;
2111;SDS011;1062;52.538;13.400;2023-06-22T04:03:15;13.90;;;12.20;;
2111;SDS011;1062;52.538;13.400;2023-06-22T04:05:41;13.30;;;11.60;;
2111;SDS011;1062;52.538;13.400;2023-06-22T04:08:07;11.37;;;10.30;;
2111;SDS011;1062;52.538;13.400;2023-06-22T04:10:32;12.10;;;11.00;;
2111;SDS011;1062;52.538;13.400;2023-06-22T04:12:59;11.43;;;10.30;;
2111;SDS011;1062;52.538;13.400;2023-06-22T04:15:25;11.13;;;9.50;;
2111;SDS011;1062;52.538;13.400;2023-06-22T04:17:51;9.77;;;8.87;;
2111;SDS011;1062;52.538;13.400;2023-06-22T04:20:16;8.00;;;7.30;;
2111;SDS011;1062;52.538;13.400;2023-06-22T04:22:42;10.40;;;8.07;;
2111;SDS011;1062;52.538;13.400;2023-06-22T04:25:08;9.30;;;8.23;;
2111;SDS011;1062;52.538;13.400;2023-06-22T04:27:33;7.40;;;6.73;;
2111;SDS011;1062;52.538;13.400;2023-06-22T04:30:07;9.07;;;7.07;;
2111;SDS011;1062;52.538;13.400;2023-06-22T04:32:34;7.67;;;6.87;;
2111;SDS011;1062;52.538;13.400;2023-06-22T04:35:03;9.27;;;8.43;;
2111;SDS011;1062;52.538;13.400;2023-06-22T04:37:30;7.37;;;6.30;;
2111;SDS011;1062;52.538;13.400;2023-06-22T04:39:56;7.97;;;6.40;;
2111;SDS011;1062;52.538;13.400;2023-06-22T04:42:21;7.80;;;7.00;;
2111;SDS011;1062;52.538;13.400;2023-06-22T04:44:47;7.03;;;6.07;;
2111;SDS011;1062;52.538;13.400;2023-06-22T04:47:13;7.03;;;6.33;;
2111;SDS011;1062;52.538;13.400;2023-06-22T04:49:38;7.40;;;6.60;;
2111;SDS011;1062;52.538;13.400;2023-06-22T04:52:06;6.97;;;6.43;;
2111;SDS011;1062;52.538;13.400;2023-06-22T04:54:33;6.83;;;6.20;;
2111;SDS011;1062;52.538;13.400;2023-06-22T04:57:03;7.37;;;6.17;;
2111;SDS011;1062;52.538;13.400;2023-06-22T04:59:34;5.20;;;4.70;;
2111;SDS011;1062;52.538;13.400;2023-06-22T05:02:01;5.63;;;5.03;;
2111;SDS011;1062;52.538;13.400;2023-06-22T05:04:28;7.50;;;4.13;;
2111;SDS011;1062;52.538;13.400;2023-06-22T05:07:01;6.07;;;5.50;;
2111;SDS011;1062;52.538;13.400;2023-06-22T05:09:27;6.80;;;4.07;;
2111;SDS011;1062;52.538;13.400;2023-06-22T05:11:53;4.20;;;3.80;;
2111;SDS011;1062;52.538;13.400;2023-06-22T05:14:19;5.13;;;4.67;;
2111;SDS011;1062;52.538;13.400;2023-06-22T05:16:45;5.77;;;3.40;;
2111;SDS011;1062;52.538;13.400;2023-06-22T05:19:11;6.10;;;4.27;;
2111;SDS011;1062;52.538;13.400;2023-06-22T05:21:37;8.43;;;4.00;;
2111;SDS011;1062;52.538;13.400;2023-06-22T05:24:04;5.90;;;5.10;;
2111;SDS011;1062;52.538;13.400;2023-06-22T05:26:30;4.47;;;4.07;;
2111;SDS011;1062;52.538;13.400;2023-06-22T05:28:57;4.47;;;4.03;;
2111;SDS011;1062;52.538;13.400;2023-06-22T05:31:24;6.73;;;4.90;;
2111;SDS011;1062;52.538;13.400;2023-06-22T05:33:50;4.73;;;4.33;;
2111;SDS011;1062;52.538;13.400;2023-06-22T05:36:17;9.70;;;4.43;;
2111;SDS011;1062;52.538;13.400;2023-06-22T05:38:44;5.03;;;4.53;;
2111;SDS011;1062;52.538;13.400;2023-06-22T05:41:10;7.17;;;4.30;;
2111;SDS011;1062;52.538;13.400;2023-06-22T05:43:36;6.47;;;4.23;;
2111;SDS011;1062;52.538;13.400;2023-06-22T05:46:03;10.10;;;5.80;;
2111;SDS011;1062;52.538;13.400;2023-06-22T05:48:29;5.60;;;3.50;;
2111;SDS011;1062;52.538;13.400;2023-06-22T05:50:55;6.00;;;4.07;;
2111;SDS011;1062;52.538;13.400;2023-06-22T05:53:20;10.77;;;4.30;;
2111;SDS011;1062;52.538;13.400;2023-06-22T05:55:46;8.60;;;4.50;;
2111;SDS011;1062;52.538;13.400;2023-06-22T05:58:12;6.03;;;3.97;;
2111;SDS011;1062;52.538;13.400;2023-06-22T06:00:38;4.67;;;4.23;;
2111;SDS011;1062;52.538;13.400;2023-06-22T06:03:04;5.90;;;4.63;;
2111;SDS011;1062;52.538;13.400;2023-06-22T06:05:30;5.33;;;4.17;;
2111;SDS011;1062;52.538;13.400;2023-06-22T06:07:57;4.90;;;4.37;;
2111;SDS011;1062;52.538;13.400;2023-06-22T06:10:24;5.80;;;4.20;;
2111;SDS011;1062;52.538;13.400;2023-06-22T06:12:50;6.73;;;4.20;;
2111;SDS011;1062;52.538;13.400;2023-06-22T06:15:15;4.43;;;4.03;;
2111;SDS011;1062;52.538;13.400;2023-06-22T06:17:51;5.93;;;3.90;;
2111;SDS011;1062;52.538;13.400;2023-06-22T06:20:18;4.43;;;3.90;;
2111;SDS011;1062;52.538;13.400;2023-06-22T06:22:45;3.40;;;3.10;;
2111;SDS011;1062;52.538;13.400;2023-06-22T06:25:10;4.83;;;3.67;;
2111;SDS011;1062;52.538;13.400;2023-06-22T06:27:41;4.20;;;3.80;;
2111;SDS011;1062;52.538;13.400;2023-06-22T06:30:08;4.87;;;4.07;;
2111;SDS011;1062;52.538;13.400;2023-06-22T06:32:34;4.37;;;3.97;;
2111;SDS011;1062;52.538;13.400;2023-06-22T06:34:59;4.00;;;3.70;;
2111;SDS011;1062;52.538;13.400;2023-06-22T06:37:25;6.03;;;3.20;;
2111;SDS011;1062;52.538;13.400;2023-06-22T06:39:50;3.80;;;3.40;;
2111;SDS011;1062;52.538;13.400;2023-06-22T06:42:16;4.13;;;3.67;;
2111;SDS011;1062;52.538;13.400;2023-06-22T06:44:41;4.73;;;3.90;;
2111;SDS011;1062;52.538;13.400;2023-06-22T06:47:07;3.90;;;3.60;;
2111;SDS011;1062;52.538;13.400;2023-06-22T06:49:33;4.27;;;3.70;;
2111;SDS011;1062;52.538;13.400;2023-06-22T06:51:59;3.53;;;3.23;;
2111;SDS011;1062;52.538;13.400;2023-06-22T06:54:24;3.50;;;3.03;;
2111;SDS011;1062;52.538;13.400;2023-06-22T06:56:50;3.27;;;3.07;;
2111;SDS011;1062;52.538;13.400;2023-06-22T06:59:15;3.70;;;3.17;;
2111;SDS011;1062;52.538;13.400;2023-06-22T07:01:41;3.50;;;3.20;;
2111;SDS011;1062;52.538;13.400;2023-06-22T07:04:09;2.93;;;2.73;;
2111;SDS011;1062;52.538;13.400;2023-06-22T07:06:34;2.93;;;2.63;;
2111;SDS011;1062;52.538;13.400;2023-06-22T07:09:00;2.77;;;2.43;;
2111;SDS011;1062;52.538;13.400;2023-06-22T07:11:26;2.83;;;2.50;;
2111;SDS011;1062;52.538;13.400;2023-06-22T07:13:52;4.27;;;3.10;;
2111;SDS011;1062;52.538;13.400;2023-06-22T07:16:17;3.17;;;2.80;;
2111;SDS011;1062;52.538;13.400;2023-06-22T07:18:43;6.20;;;3.10;;
2111;SDS011;1062;52.538;13.400;2023-06-22T07:21:09;3.13;;;2.83;;
2111;SDS011;1062;52.538;13.400;2023-06-22T07:23:34;3.20;;;2.77;;
2111;SDS011;1062;52.538;13.400;2023-06-22T07:26:00;3.23;;;3.03;;
2111;SDS011;1062;52.538;13.400;2023-06-22T07:28:31;3.53;;;3.23;;
2111;SDS011;1062;52.538;13.400;2023-06-22T07:31:01;3.20;;;2.73;;
2111;SDS011;1062;52.538;13.400;2023-06-22T07:33:28;3.20;;;2.90;;
2111;SDS011;1062;52.538;13.400;2023-06-22T07:35:53;4.67;;;2.53;;
2111;SDS011;1062;52.538;13.400;2023-06-22T07:38:19;6.20;;;2.77;;
2111;SDS011;1062;52.538;13.400;2023-06-22T07:40:45;3.20;;;2.67;;
2111;SDS011;1062;52.538;13.400;2023-06-22T07:43:10;2.77;;;2.50;;
2111;SDS011;1062;52.538;13.400;2023-06-22T07:45:37;5.90;;;3.20;;
2111;SDS011;1062;52.538;13.400;2023-06-22T07:48:05;3.03;;;2.73;;
2111;SDS011;1062;52.538;13.400;2023-06-22T07:50:30;2.73;;;2.17;;
2111;SDS011;1062;52.538;13.400;2023-06-22T07:52:56;2.73;;;2.53;;
2111;SDS011;1062;52.538;13.400;2023-06-22T07:55:21;2.97;;;2.60;;
2111;SDS011;1062;52.538;13.400;2023-06-22T07:57:48;3.80;;;3.00;;
2111;SDS011;1062;52.538;13.400;2023-06-22T08:00:16;3.43;;;3.13;;
2111;SDS011;1062;52.538;13.400;2023-06-22T08:02:44;3.90;;;2.60;;
2111;SDS011;1062;52.538;13.400;2023-06-22T08:05:10;4.30;;;2.97;;
2111;SDS011;1062;52.538;13.400;2023-06-22T08:07:37;4.30;;;2.67;;
2111;SDS011;1062;52.538;13.400;2023-06-22T08:10:04;3.00;;;2.40;;
2111;SDS011;1062;52.538;13.400;2023-06-22T08:12:30;4.73;;;3.10;;
2111;SDS011;1062;52.538;13.400;2023-06-22T08:14:55;2.97;;;2.67;;
2111;SDS011;1062;52.538;13.400;2023-06-22T08:17:22;3.37;;;2.87;;
2111;SDS011;1062;52.538;13.400;2023-06-22T08:19:48;3.20;;;2.90;;
2111;SDS011;1062;52.538;13.400;2023-06-22T08:22:14;3.93;;;2.50;;
2111;SDS011;1062;52.538;13.400;2023-06-22T08:24:40;4.37;;;2.60;;
2111;SDS011;1062;52.538;13.400;2023-06-22T08:27:09;3.10;;;2.90;;
2111;SDS011;1062;52.538;13.400;2023-06-22T08:29:38;2.60;;;2.40;;
2111;SDS011;1062;52.538;13.400;2023-06-22T08:32:04;3.50;;;2.83;;
2111;SDS011;1062;52.538;13.400;2023-06-22T08:34:30;3.53;;;3.23;;
2111;SDS011;1062;52.538;13.400;2023-06-22T08:36:56;2.80;;;2.60;;
2111;SDS011;1062;52.538;13.400;2023-06-22T08:39:21;4.00;;;2.50;;
2111;SDS011;1062;52.538;13.400;2023-06-22T08:41:47;3.47;;;3.17;;
2111;SDS011;1062;52.538;13.400;2023-06-22T08:44:13;3.97;;;2.67;;
2111;SDS011;1062;52.538;13.400;2023-06-22T08:46:39;2.70;;;2.50;;
2111;SDS011;1062;52.538;13.400;2023-06-22T08:49:05;3.13;;;2.77;;
2111;SDS011;1062;52.538;13.400;2023-06-22T08:51:32;2.70;;;2.47;;
2111;SDS011;1062;52.538;13.400;2023-06-22T08:53:57;5.27;;;2.83;;
2111;SDS011;1062;52.538;13.400;2023-06-22T08:56:23;2.80;;;2.60;;
2111;SDS011;1062;52.538;13.400;2023-06-22T08:58:49;4.07;;;3.10;;
2111;SDS011;1062;52.538;13.400;2023-06-22T09:01:14;3.90;;;2.63;;
2111;SDS011;1062;52.538;13.400;2023-06-22T09:03:43;2.57;;;2.37;;
2111;SDS011;1062;52.538;13.400;2023-06-22T09:06:08;4.20;;;3.30;;
2111;SDS011;1062;52.538;13.400;2023-06-22T09:08:34;3.80;;;3.33;;
2111;SDS011;1062;52.538;13.400;2023-06-22T09:11:01;3.17;;;2.87;;
2111;SDS011;1062;52.538;13.400;2023-06-22T09:13:28;3.30;;;3.00;;
2111;SDS011;1062;52.538;13.400;2023-06-22T09:15:55;6.37;;;3.40;;
2111;SDS011;1062;52.538;13.400;2023-06-22T09:18:21;3.40;;;3.00;;
2111;SDS011;1062;52.538;13.400;2023-06-22T09:20:46;2.97;;;2.70;;
2111;SDS011;1062;52.538;13.400;2023-06-22T09:23:12;3.17;;;2.87;;
2111;SDS011;1062;52.538;13.400;2023-06-22T09:25:38;3.40;;;3.10;;
2111;SDS011;1062;52.538;13.400;2023-06-22T09:28:05;6.03;;;2.90;;
2111;SDS011;1062;52.538;13.400;2023-06-22T09:30:30;4.20;;;3.00;;
2111;SDS011;1062;52.538;13.400;2023-06-22T09:32:56;4.03;;;3.00;;
2111;SDS011;1062;52.538;13.400;2023-06-22T09:35:21;3.87;;;2.83;;
2111;SDS011;1062;52.538;13.400;2023-06-22T09:37:47;4.53;;;3.13;;
2111;SDS011;1062;52.538;13.400;2023-06-22T09:40:13;2.40;;;2.20;;
2111;SDS011;1062;52.538;13.400;2023-06-22T09:42:41;2.60;;;2.40;;
2111;SDS011;1062;52.538;13.400;2023-06-22T09:45:07;2.80;;;2.60;;
2111;SDS011;1062;52.538;13.400;2023-06-22T09:47:33;4.40;;;2.90;;
2111;SDS011;1062;52.538;13.400;2023-06-22T09:49:58;2.67;;;2.47;;
2111;SDS011;1062;52.538;13.400;2023-06-22T09:52:24;5.23;;;3.50;;
2111;SDS011;1062;52.538;13.400;2023-06-22T09:54:50;3.17;;;2.93;;
2111;SDS011;1062;52.538;13.400;2023-06-22T09:57:16;3.40;;;2.50;;
2111;SDS011;1062;52.538;13.400;2023-06-22T09:59:41;2.77;;;2.17;;
2111;SDS011;1062;52.538;13.400;2023-06-22T10:02:07;4.47;;;3.47;;
2111;SDS011;1062;52.538;13.400;2023-06-22T10:04:34;2.70;;;2.50;;
2111;SDS011;1062;52.538;13.400;2023-06-22T10:07:00;3.20;;;2.90;;
2111;SDS011;1062;52.538;13.400;2023-06-22T10:09:27;3.03;;;2.73;;
2111;SDS011;1062;52.538;13.400;2023-06-22T10:11:52;4.60;;;2.80;;
2111;SDS011;1062;52.538;13.400;2023-06-22T10:14:18;3.20;;;3.00;;
2111;SDS011;1062;52.538;13.400;2023-06-22T10:16:44;3.20;;;2.70;;
2111;SDS011;1062;52.538;13.400;2023-06-22T10:19:09;4.10;;;3.00;;
2111;SDS011;1062;52.538;13.400;2023-06-22T10:21:35;3.20;;;2.90;;
2111;SDS011;1062;52.538;13.400;2023-06-22T10:24:00;3.83;;;2.83;;
2111;SDS011;1062;52.538;13.400;2023-06-22T10:26:33;5.20;;;3.10;;
2111;SDS011;1062;52.538;13.400;2023-06-22T10:29:00;3.73;;;2.30;;
2111;SDS011;1062;52.538;13.400;2023-06-22T10:31:26;4.33;;;3.40;;
2111;SDS011;1062;52.538;13.400;2023-06-22T10:33:52;3.20;;;2.90;;
2111;SDS011;1062;52.538;13.400;2023-06-22T10:36:19;5.10;;;3.20;;
2111;SDS011;1062;52.538;13.400;2023-06-22T10:38:44;8.10;;;3.43;;
2111;SDS011;1062;52.538;13.400;2023-06-22T10:41:12;3.20;;;3.00;;
2111;SDS011;1062;52.538;13.400;2023-06-22T10:43:37;2.50;;;2.30;;
2111;SDS011;1062;52.538;13.400;2023-06-22T10:46:03;3.50;;;3.20;;
2111;SDS011;1062;52.538;13.400;2023-06-22T10:48:29;4.20;;;3.90;;
2111;SDS011;1062;52.538;13.400;2023-06-22T10:50:54;3.70;;;3.40;;
2111;SDS011;1062;52.538;13.400;2023-06-22T10:53:20;3.73;;;3.43;;
2111;SDS011;1062;52.538;13.400;2023-06-22T10:55:46;3.77;;;3.47;;
2111;SDS011;1062;52.538;13.400;2023-06-22T10:58:12;3.20;;;3.00;;
2111;SDS011;1062;52.538;13.400;2023-06-22T11:00:38;4.83;;;3.70;;
2111;SDS011;1062;52.538;13.400;2023-06-22T11:03:03;3.70;;;3.40;;
2111;SDS011;1062;52.538;13.400;2023-06-22T11:05:29;4.83;;;3.30;;
2111;SDS011;1062;52.538;13.400;2023-06-22T11:07:54;5.80;;;3.50;;
2111;SDS011;1062;52.538;13.400;2023-06-22T11:10:20;3.70;;;3.40;;
2111;SDS011;1062;52.538;13.400;2023-06-22T11:12:45;2.93;;;2.73;;
2111;SDS011;1062;52.538;13.400;2023-06-22T11:15:11;3.50;;;3.20;;
2111;SDS011;1062;52.538;13.400;2023-06-22T11:17:37;3.57;;;3.30;;
2111;SDS011;1062;52.538;13.400;2023-06-22T11:20:03;5.00;;;3.30;;
2111;SDS011;1062;52.538;13.400;2023-06-22T11:22:36;3.63;;;3.33;;
2111;SDS011;1062;52.538;13.400;2023-06-22T11:25:04;3.87;;;3.57;;
2111;SDS011;1062;52.538;13.400;2023-06-22T11:27:30;4.03;;;2.73;;
2111;SDS011;1062;52.538;13.400;2023-06-22T11:29:56;3.30;;;3.00;;
2111;SDS011;1062;52.538;13.400;2023-06-22T11:32:22;3.67;;;3.37;;
2111;SDS011;1062;52.538;13.400;2023-06-22T11:34:48;6.03;;;3.80;;
2111;SDS011;1062;52.538;13.400;2023-06-22T11:37:13;3.37;;;3.07;;
2111;SDS011;1062;52.538;13.400;2023-06-22T11:39:40;3.10;;;2.80;;
2111;SDS011;1062;52.538;13.400;2023-06-22T11:42:06;4.73;;;4.17;;
2111;SDS011;1062;52.538;13.400;2023-06-22T11:44:32;3.43;;;3.13;;
2111;SDS011;1062;52.538;13.400;2023-06-22T11:46:57;4.57;;;4.07;;
2111;SDS011;1062;52.538;13.400;2023-06-22T11:49:25;3.67;;;3.33;;
2111;SDS011;1062;52.538;13.400;2023-06-22T11:51:51;3.93;;;3.20;;
2111;SDS011;1062;52.538;13.400;2023-06-22T11:54:17;3.93;;;3.53;;
2111;SDS011;1062;52.538;13.400;2023-06-22T11:56:43;4.37;;;3.10;;
2111;SDS011;1062;52.538;13.400;2023-06-22T11:59:08;4.77;;;3.83;;
2111;SDS011;1062;52.538;13.400;2023-06-22T12:01:34;3.60;;;3.30;;
2111;SDS011;1062;52.538;13.400;2023-06-22T12:04:00;3.90;;;3.60;;
2111;SDS011;1062;52.538;13.400;2023-06-22T12:06:25;6.83;;;3.10;;
2111;SDS011;1062;52.538;13.400;2023-06-22T12:08:51;3.83;;;3.43;;
2111;SDS011;1062;52.538;13.400;2023-06-22T12:11:16;3.90;;;3.50;;
2111;SDS011;1062;52.538;13.400;2023-06-22T12:13:42;3.60;;;3.30;;
2111;SDS011;1062;52.538;13.400;2023-06-22T12:16:08;4.30;;;3.60;;
2111;SDS011;1062;52.538;13.400;2023-06-22T12:18:33;3.10;;;2.90;;
2111;SDS011;1062;52.538;13.400;2023-06-22T12:21:01;5.67;;;4.37;;
2111;SDS011;1062;52.538;13.400;2023-06-22T12:23:27;4.33;;;3.27;;
2111;SDS011;1062;52.538;13.400;2023-06-22T12:25:53;3.63;;;3.33;;
2111;SDS011;1062;52.538;13.400;2023-06-22T12:28:18;3.40;;;3.10;;
2111;SDS011;1062;52.538;13.400;2023-06-22T12:30:44;4.13;;;3.83;;
2111;SDS011;1062;52.538;13.400;2023-06-22T12:33:09;3.53;;;3.23;;
2111;SDS011;1062;52.538;13.400;2023-06-22T12:35:35;3.60;;;3.07;;
2111;SDS011;1062;52.538;13.400;2023-06-22T12:38:01;3.80;;;3.27;;
2111;SDS011;1062;52.538;13.400;2023-06-22T12:40:27;4.17;;;3.80;;
2111;SDS011;1062;52.538;13.400;2023-06-22T12:42:53;4.50;;;3.53;;
2111;SDS011;1062;52.538;13.400;2023-06-22T12:45:19;3.63;;;3.33;;
2111;SDS011;1062;52.538;13.400;2023-06-22T12:47:46;4.10;;;3.70;;
2111;SDS011;1062;52.538;13.400;2023-06-22T12:50:12;3.17;;;2.97;;
2111;SDS011;1062;52.538;13.400;2023-06-22T12:52:39;3.93;;;3.47;;
2111;SDS011;1062;52.538;13.400;2023-06-22T12:55:06;4.03;;;3.13;;
2111;SDS011;1062;52.538;13.400;2023-06-22T12:57:35;3.50;;;3.20;;
2111;SDS011;1062;52.538;13.400;2023-06-22T13:00:00;3.90;;;3.57;;
2111;SDS011;1062;52.538;13.400;2023-06-22T13:02:26;4.47;;;4.07;;
2111;SDS011;1062;52.538;13.400;2023-06-22T13:04:51;4.23;;;3.43;;
2111;SDS011;1062;52.538;13.400;2023-06-22T13:07:17;4.77;;;3.83;;
2111;SDS011;1062;52.538;13.400;2023-06-22T13:09:43;4.20;;;3.83;;
2111;SDS011;1062;52.538;13.400;2023-06-22T13:12:11;5.10;;;4.20;;
2111;SDS011;1062;52.538;13.400;2023-06-22T13:14:37;5.00;;;3.83;;
2111;SDS011;1062;52.538;13.400;2023-06-22T13:17:02;5.83;;;4.30;;
2111;SDS011;1062;52.538;13.400;2023-06-22T13:19:28;4.30;;;4.00;;
2111;SDS011;1062;52.538;13.400;2023-06-22T13:21:57;3.70;;;3.40;;
2111;SDS011;1062;52.538;13.400;2023-06-22T13:24:23;4.50;;;4.10;;
2111;SDS011;1062;52.538;13.400;2023-06-22T13:26:48;5.03;;;3.70;;
2111;SDS011;1062;52.538;13.400;2023-06-22T13:29:14;4.70;;;4.30;;
2111;SDS011;1062;52.538;13.400;2023-06-22T13:31:39;7.93;;;4.57;;
2111;SDS011;1062;52.538;13.400;2023-06-22T13:34:05;6.93;;;3.60;;
2111;SDS011;1062;52.538;13.400;2023-06-22T13:36:31;3.80;;;3.50;;
2111;SDS011;1062;52.538;13.400;2023-06-22T13:38:56;4.70;;;3.83;;
2111;SDS011;1062;52.538;13.400;2023-06-22T13:41:22;6.63;;;3.93;;
2111;SDS011;1062;52.538;13.400;2023-06-22T13:43:48;5.17;;;4.37;;
2111;SDS011;1062;52.538;13.400;2023-06-22T13:46:13;4.23;;;3.83;;
2111;SDS011;1062;52.538;13.400;2023-06-22T13:48:39;5.60;;;3.90;;
2111;SDS011;1062;52.538;13.400;2023-06-22T13:51:04;4.37;;;3.97;;
2111;SDS011;1062;52.538;13.400;2023-06-22T13:53:31;3.77;;;3.47;;
2111;SDS011;1062;52.538;13.400;2023-06-22T13:55:56;4.03;;;3.73;;
2111;SDS011;1062;52.538;13.400;2023-06-22T13:58:22;4.30;;;3.80;;
2111;SDS011;1062;52.538;13.400;2023-06-22T14:00:48;4.23;;;3.93;;
2111;SDS011;1062;52.538;13.400;2023-06-22T14:03:14;4.53;;;3.70;;
2111;SDS011;1062;52.538;13.400;2023-06-22T14:05:41;3.80;;;3.50;;
2111;SDS011;1062;52.538;13.400;2023-06-22T14:08:07;5.73;;;4.73;;
2111;SDS011;1062;52.538;13.400;2023-06-22T14:10:34;4.50;;;4.10;;
2111;SDS011;1062;52.538;13.400;2023-06-22T14:12:59;5.47;;;4.20;;
2111;SDS011;1062;52.538;13.400;2023-06-22T14:15:25;4.40;;;3.73;;
2111;SDS011;1062;52.538;13.400;2023-06-22T14:17:51;4.23;;;3.83;;
2111;SDS011;1062;52.538;13.400;2023-06-22T14:20:17;4.00;;;3.53;;
2111;SDS011;1062;52.538;13.400;2023-06-22T14:22:43;5.07;;;4.40;;
2111;SDS011;1062;52.538;13.400;2023-06-22T14:25:09;4.40;;;4.03;;
2111;SDS011;1062;52.538;13.400;2023-06-22T14:27:34;4.23;;;3.90;;
2111;SDS011;1062;52.538;13.400;2023-06-22T14:30:00;4.13;;;3.83;;
2111;SDS011;1062;52.538;13.400;2023-06-22T14:32:27;5.43;;;4.43;;
2111;SDS011;1062;52.538;13.400;2023-06-22T14:34:54;5.40;;;3.53;;
2111;SDS011;1062;52.538;13.400;2023-06-22T14:37:20;4.37;;;4.00;;
2111;SDS011;1062;52.538;13.400;2023-06-22T14:39:45;5.43;;;4.93;;
2111;SDS011;1062;52.538;13.400;2023-06-22T14:42:11;5.10;;;4.70;;
2111;SDS011;1062;52.538;13.400;2023-06-22T14:44:37;3.87;;;3.47;;
2111;SDS011;1062;52.538;13.400;2023-06-22T14:47:03;4.30;;;3.90;;
2111;SDS011;1062;52.538;13.400;2023-06-22T14:49:28;4.67;;;4.20;;
2111;SDS011;1062;52.538;13.400;2023-06-22T14:51:54;5.03;;;4.60;;